sensor_id;sensor_type;location;lat;lon;timestamp;pressure;altitude;pressure_sealevel;temperature;humidity
65013;BME280;51715;39.432;-77.518;2023-08-21T00:00:07;99795.12;;;32.02;28.27
65013;BME280;51715;39.432;-77.518;2023-08-21T00:02:37;99805.49;;;31.86;28.63
65013;BME280;51715;39.432;-77.518;2023-08-21T00:05:06;99815.90;;;31.92;28.44
65013;BME280;51715;39.432;-77.518;2023-08-21T00:07:35;99821.86;;;31.98;28.39
65013;BME280;51715;39.432;-77.518;2023-08-21T00:10:05;99822.19;;;31.91;28.54
65013;BME280;51715;39.432;-77.518;2023-08-21T00:12:34;99820.00;;;32.39;28.63
65013;BME280;51715;39.432;-77.518;2023-08-21T00:15:03;99824.06;;;31.80;28.56
65013;BME280;51715;39.432;-77.518;2023-08-21T00:17:31;99823.45;;;32.17;28.55
65013;BME280;51715;39.432;-77.518;2023-08-21T00:19:59;99819.93;;;31.89;28.72
65013;BME280;51715;39.432;-77.518;2023-08-21T00:22:28;99818.54;;;31.82;28.85
65013;BME280;51715;39.432;-77.518;2023-08-21T00:24:57;99818.41;;;31.78;28.92
65013;BME280;51715;39.432;-77.518;2023-08-21T00:27:26;99819.49;;;31.45;29.16
65013;BME280;51715;39.432;-77.518;2023-08-21T00:29:55;99818.59;;;31.58;29.06
65013;BME280;51715;39.432;-77.518;2023-08-21T00:32:23;99814.35;;;31.72;29.36
65013;BME280;51715;39.432;-77.518;2023-08-21T00:34:52;99812.96;;;31.93;29.39
65013;BME280;51715;39.432;-77.518;2023-08-21T00:37:20;99814.82;;;31.42;29.29
65013;BME280;51715;39.432;-77.518;2023-08-21T00:39:48;99816.75;;;31.16;29.35
65013;BME280;51715;39.432;-77.518;2023-08-21T00:42:17;99818.07;;;31.39;29.37
65013;BME280;51715;39.432;-77.518;2023-08-21T00:44:45;99819.16;;;31.48;29.40
65013;BME280;51715;39.432;-77.518;2023-08-21T00:47:14;99819.44;;;31.35;30.15
65013;BME280;51715;39.432;-77.518;2023-08-21T00:49:43;99824.29;;;31.25;29.85
65013;BME280;51715;39.432;-77.518;2023-08-21T00:52:13;99830.13;;;31.19;29.84
65013;BME280;51715;39.432;-77.518;2023-08-21T00:54:42;99838.73;;;31.13;29.84
65013;BME280;51715;39.432;-77.518;2023-08-21T00:57:11;99835.33;;;31.07;29.90
65013;BME280;51715;39.432;-77.518;2023-08-21T00:59:41;99833.95;;;31.33;30.17
65013;BME280;51715;39.432;-77.518;2023-08-21T01:02:10;99835.24;;;31.04;30.05
65013;BME280;51715;39.432;-77.518;2023-08-21T01:04:38;99838.63;;;30.97;30.22
65013;BME280;51715;39.432;-77.518;2023-08-21T01:07:06;99844.88;;;30.83;30.95
65013;BME280;51715;39.432;-77.518;2023-08-21T01:09:39;99849.21;;;30.76;30.60
65013;BME280;51715;39.432;-77.518;2023-08-21T01:12:19;99853.21;;;31.16;30.52
65013;BME280;51715;39.432;-77.518;2023-08-21T01:14:57;99853.14;;;30.90;30.73
65013;BME280;51715;39.432;-77.518;2023-08-21T01:17:28;99854.18;;;31.07;30.90
65013;BME280;51715;39.432;-77.518;2023-08-21T01:19:57;99859.19;;;30.76;30.95
65013;BME280;51715;39.432;-77.518;2023-08-21T01:22:27;99868.51;;;30.67;31.16
65013;BME280;51715;39.432;-77.518;2023-08-21T01:24:55;99876.78;;;30.60;31.46
65013;BME280;51715;39.432;-77.518;2023-08-21T01:27:24;99879.14;;;30.46;31.88
65013;BME280;51715;39.432;-77.518;2023-08-21T01:29:52;99885.93;;;30.57;32.51
65013;BME280;51715;39.432;-77.518;2023-08-21T01:32:26;99889.15;;;30.45;32.01
65013;BME280;51715;39.432;-77.518;2023-08-21T01:34:56;99894.75;;;30.37;32.54
65013;BME280;51715;39.432;-77.518;2023-08-21T01:37:25;99896.55;;;30.29;32.44
65013;BME280;51715;39.432;-77.518;2023-08-21T01:39:54;99900.09;;;30.22;32.75
65013;BME280;51715;39.432;-77.518;2023-08-21T01:42:25;99898.52;;;30.12;32.63
65013;BME280;51715;39.432;-77.518;2023-08-21T01:44:54;99897.32;;;30.03;32.90
65013;BME280;51715;39.432;-77.518;2023-08-21T01:47:24;99898.56;;;29.97;32.71
65013;BME280;51715;39.432;-77.518;2023-08-21T01:49:52;99896.57;;;29.83;33.01
65013;BME280;51715;39.432;-77.518;2023-08-21T01:52:20;99897.99;;;30.16;33.55
65013;BME280;51715;39.432;-77.518;2023-08-21T01:54:50;99898.63;;;29.55;33.45
65013;BME280;51715;39.432;-77.518;2023-08-21T01:57:18;99901.13;;;29.41;33.97
65013;BME280;51715;39.432;-77.518;2023-08-21T01:59:46;99901.82;;;29.78;34.09
65013;BME280;51715;39.432;-77.518;2023-08-21T02:02:15;99903.67;;;29.72;34.10
65013;BME280;51715;39.432;-77.518;2023-08-21T02:04:43;99906.91;;;29.63;34.19
65013;BME280;51715;39.432;-77.518;2023-08-21T02:07:11;99916.39;;;29.58;34.25
65013;BME280;51715;39.432;-77.518;2023-08-21T02:09:39;99925.66;;;29.32;34.10
65013;BME280;51715;39.432;-77.518;2023-08-21T02:12:07;99926.98;;;29.29;34.36
65013;BME280;51715;39.432;-77.518;2023-08-21T02:14:36;99931.47;;;29.47;34.21
65013;BME280;51715;39.432;-77.518;2023-08-21T02:17:05;99930.00;;;29.03;34.60
65013;BME280;51715;39.432;-77.518;2023-08-21T02:19:34;99926.13;;;29.20;35.00
65013;BME280;51715;39.432;-77.518;2023-08-21T02:22:01;99923.13;;;29.04;35.41
65013;BME280;51715;39.432;-77.518;2023-08-21T02:24:29;99918.17;;;28.63;35.60
65013;BME280;51715;39.432;-77.518;2023-08-21T02:26:57;99919.60;;;28.86;35.66
65013;BME280;51715;39.432;-77.518;2023-08-21T02:29:26;99917.96;;;28.82;35.68
65013;BME280;51715;39.432;-77.518;2023-08-21T02:31:54;99913.36;;;28.81;35.65
65013;BME280;51715;39.432;-77.518;2023-08-21T02:34:22;99912.32;;;28.82;35.82
65013;BME280;51715;39.432;-77.518;2023-08-21T02:36:51;99909.23;;;28.81;35.80
65013;BME280;51715;39.432;-77.518;2023-08-21T02:39:19;99905.14;;;28.99;36.29
65013;BME280;51715;39.432;-77.518;2023-08-21T02:41:47;99901.34;;;28.74;35.97
65013;BME280;51715;39.432;-77.518;2023-08-21T02:44:15;99902.92;;;28.88;35.99
65013;BME280;51715;39.432;-77.518;2023-08-21T02:46:43;99903.43;;;28.62;35.84
65013;BME280;51715;39.432;-77.518;2023-08-21T02:49:11;99900.21;;;28.55;35.87
65013;BME280;51715;39.432;-77.518;2023-08-21T02:51:40;99891.62;;;28.70;36.01
65013;BME280;51715;39.432;-77.518;2023-08-21T02:54:08;99887.98;;;28.41;36.21
65013;BME280;51715;39.432;-77.518;2023-08-21T02:56:38;99881.31;;;28.85;36.46
65013;BME280;51715;39.432;-77.518;2023-08-21T02:59:06;99877.73;;;28.45;36.47
65013;BME280;51715;39.432;-77.518;2023-08-21T03:01:35;99883.98;;;28.40;36.38
65013;BME280;51715;39.432;-77.518;2023-08-21T03:04:04;99894.19;;;28.10;36.47
65013;BME280;51715;39.432;-77.518;2023-08-21T03:06:33;99903.42;;;28.11;36.52
65013;BME280;51715;39.432;-77.518;2023-08-21T03:09:02;99923.03;;;28.52;36.31
65013;BME280;51715;39.432;-77.518;2023-08-21T03:11:30;99931.92;;;28.10;36.75
65013;BME280;51715;39.432;-77.518;2023-08-21T03:13:58;99929.44;;;28.36;36.90
65013;BME280;51715;39.432;-77.518;2023-08-21T03:16:27;99925.00;;;28.06;37.01
65013;BME280;51715;39.432;-77.518;2023-08-21T03:18:55;99919.11;;;27.98;37.12
65013;BME280;51715;39.432;-77.518;2023-08-21T03:21:24;99914.44;;;27.94;37.07
65013;BME280;51715;39.432;-77.518;2023-08-21T03:23:57;99908.99;;;28.20;37.10
65013;BME280;51715;39.432;-77.518;2023-08-21T03:26:26;99909.28;;;28.17;36.93
65013;BME280;51715;39.432;-77.518;2023-08-21T03:28:55;99910.54;;;27.85;37.23
65013;BME280;51715;39.432;-77.518;2023-08-21T03:31:23;99907.68;;;27.77;37.49
65013;BME280;51715;39.432;-77.518;2023-08-21T03:33:52;99900.70;;;27.85;37.86
65013;BME280;51715;39.432;-77.518;2023-08-21T03:36:20;99900.05;;;27.70;37.97
65013;BME280;51715;39.432;-77.518;2023-08-21T03:38:48;99904.56;;;27.57;37.97
65013;BME280;51715;39.432;-77.518;2023-08-21T03:41:17;99905.52;;;27.51;38.23
65013;BME280;51715;39.432;-77.518;2023-08-21T03:43:46;99905.41;;;27.54;38.11
65013;BME280;51715;39.432;-77.518;2023-08-21T03:46:14;99906.95;;;27.50;38.37
65013;BME280;51715;39.432;-77.518;2023-08-21T03:48:42;99902.56;;;27.34;38.57
65013;BME280;51715;39.432;-77.518;2023-08-21T03:51:10;99904.20;;;27.29;38.66
65013;BME280;51715;39.432;-77.518;2023-08-21T03:53:38;99910.54;;;27.72;38.20
65013;BME280;51715;39.432;-77.518;2023-08-21T03:56:06;99912.43;;;27.26;38.26
65013;BME280;51715;39.432;-77.518;2023-08-21T03:58:35;99912.57;;;27.21;38.69
65013;BME280;51715;39.432;-77.518;2023-08-21T04:03:59;99907.83;;;27.38;37.71
65013;BME280;51715;39.432;-77.518;2023-08-21T04:06:27;99903.32;;;27.36;37.67
65013;BME280;51715;39.432;-77.518;2023-08-21T04:08:56;99900.21;;;27.36;37.66
65013;BME280;51715;39.432;-77.518;2023-08-21T04:11:23;99897.74;;;27.59;37.61
65013;BME280;51715;39.432;-77.518;2023-08-21T04:13:51;99897.29;;;27.65;37.93
65013;BME280;51715;39.432;-77.518;2023-08-21T04:16:19;99896.40;;;27.42;38.23
65013;BME280;51715;39.432;-77.518;2023-08-21T04:18:47;99895.34;;;27.25;38.10
65013;BME280;51715;39.432;-77.518;2023-08-21T04:21:15;99895.48;;;27.09;38.20
65013;BME280;51715;39.432;-77.518;2023-08-21T04:23:44;99889.96;;;27.17;38.75
65013;BME280;51715;39.432;-77.518;2023-08-21T04:26:12;99889.05;;;27.07;38.99
65013;BME280;51715;39.432;-77.518;2023-08-21T04:28:41;99888.12;;;27.16;39.45
65013;BME280;51715;39.432;-77.518;2023-08-21T04:31:09;99892.73;;;27.06;39.49
65013;BME280;51715;39.432;-77.518;2023-08-21T04:33:36;99895.04;;;26.96;39.56
65013;BME280;51715;39.432;-77.518;2023-08-21T04:36:05;99893.47;;;26.49;39.68
65013;BME280;51715;39.432;-77.518;2023-08-21T04:38:33;99889.96;;;26.88;39.79
65013;BME280;51715;39.432;-77.518;2023-08-21T04:41:10;99891.92;;;26.84;39.92
65013;BME280;51715;39.432;-77.518;2023-08-21T04:43:38;99891.99;;;26.79;39.93
65013;BME280;51715;39.432;-77.518;2023-08-21T04:46:06;99889.11;;;26.52;39.96
65013;BME280;51715;39.432;-77.518;2023-08-21T04:48:35;99884.11;;;26.73;40.03
65013;BME280;51715;39.432;-77.518;2023-08-21T04:51:02;99881.88;;;26.68;39.95
65013;BME280;51715;39.432;-77.518;2023-08-21T04:53:31;99883.69;;;26.67;39.56
65013;BME280;51715;39.432;-77.518;2023-08-21T04:55:59;99887.91;;;26.63;39.42
65013;BME280;51715;39.432;-77.518;2023-08-21T04:58:27;99889.92;;;26.60;39.92
65013;BME280;51715;39.432;-77.518;2023-08-21T05:00:55;99891.33;;;26.62;39.91
65013;BME280;51715;39.432;-77.518;2023-08-21T05:03:23;99894.18;;;26.68;39.71
65013;BME280;51715;39.432;-77.518;2023-08-21T05:05:55;99897.25;;;26.63;39.23
65013;BME280;51715;39.432;-77.518;2023-08-21T05:08:25;99899.01;;;26.39;39.48
65013;BME280;51715;39.432;-77.518;2023-08-21T05:10:55;99900.07;;;26.64;39.74
65013;BME280;51715;39.432;-77.518;2023-08-21T05:13:23;99902.75;;;26.38;39.73
65013;BME280;51715;39.432;-77.518;2023-08-21T05:15:52;99900.99;;;26.35;39.86
65013;BME280;51715;39.432;-77.518;2023-08-21T05:18:20;99899.74;;;26.56;39.97
65013;BME280;51715;39.432;-77.518;2023-08-21T05:20:48;99899.82;;;26.26;40.03
65013;BME280;51715;39.432;-77.518;2023-08-21T05:23:17;99898.05;;;26.39;40.22
65013;BME280;51715;39.432;-77.518;2023-08-21T05:25:46;99899.38;;;26.61;40.37
65013;BME280;51715;39.432;-77.518;2023-08-21T05:28:15;99902.14;;;26.35;40.21
65013;BME280;51715;39.432;-77.518;2023-08-21T05:30:43;99901.26;;;26.58;40.30
65013;BME280;51715;39.432;-77.518;2023-08-21T05:33:13;99898.89;;;26.24;40.48
65013;BME280;51715;39.432;-77.518;2023-08-21T05:35:41;99896.31;;;26.50;40.38
65013;BME280;51715;39.432;-77.518;2023-08-21T05:38:10;99893.58;;;26.19;40.57
65013;BME280;51715;39.432;-77.518;2023-08-21T05:40:38;99889.55;;;26.14;40.68
65013;BME280;51715;39.432;-77.518;2023-08-21T05:43:08;99882.82;;;26.11;40.77
65013;BME280;51715;39.432;-77.518;2023-08-21T05:45:36;99879.57;;;26.30;40.93
65013;BME280;51715;39.432;-77.518;2023-08-21T05:48:05;99874.36;;;25.98;41.08
65013;BME280;51715;39.432;-77.518;2023-08-21T05:50:32;99870.34;;;25.97;41.05
65013;BME280;51715;39.432;-77.518;2023-08-21T05:53:01;99870.63;;;26.39;41.17
65013;BME280;51715;39.432;-77.518;2023-08-21T05:55:29;99869.64;;;26.15;41.10
65013;BME280;51715;39.432;-77.518;2023-08-21T05:57:57;99867.37;;;26.19;40.90
65013;BME280;51715;39.432;-77.518;2023-08-21T06:00:25;99864.32;;;26.42;40.97
65013;BME280;51715;39.432;-77.518;2023-08-21T06:02:53;99863.50;;;26.21;40.82
65013;BME280;51715;39.432;-77.518;2023-08-21T06:05:21;99861.18;;;25.94;40.64
65013;BME280;51715;39.432;-77.518;2023-08-21T06:07:49;99861.46;;;26.21;40.45
65013;BME280;51715;39.432;-77.518;2023-08-21T06:10:17;99859.33;;;26.10;40.39
65013;BME280;51715;39.432;-77.518;2023-08-21T06:12:45;99853.79;;;25.79;40.75
65013;BME280;51715;39.432;-77.518;2023-08-21T06:15:14;99853.95;;;25.99;40.81
65013;BME280;51715;39.432;-77.518;2023-08-21T06:17:42;99855.37;;;25.89;40.42
65013;BME280;51715;39.432;-77.518;2023-08-21T06:20:11;99859.64;;;25.82;40.72
65013;BME280;51715;39.432;-77.518;2023-08-21T06:22:38;99863.02;;;25.80;40.78
65013;BME280;51715;39.432;-77.518;2023-08-21T06:25:08;99864.64;;;25.74;40.85
65013;BME280;51715;39.432;-77.518;2023-08-21T06:27:36;99869.78;;;25.68;41.04
65013;BME280;51715;39.432;-77.518;2023-08-21T06:30:05;99872.92;;;25.81;41.23
65013;BME280;51715;39.432;-77.518;2023-08-21T06:32:33;99875.61;;;25.90;41.65
65013;BME280;51715;39.432;-77.518;2023-08-21T06:35:05;99871.79;;;25.50;41.85
65013;BME280;51715;39.432;-77.518;2023-08-21T06:37:33;99870.52;;;25.58;41.85
65013;BME280;51715;39.432;-77.518;2023-08-21T06:40:02;99871.53;;;25.61;41.67
65013;BME280;51715;39.432;-77.518;2023-08-21T06:42:30;99874.48;;;25.42;41.73
65013;BME280;51715;39.432;-77.518;2023-08-21T06:44:58;99876.77;;;25.68;41.48
65013;BME280;51715;39.432;-77.518;2023-08-21T06:47:27;99878.08;;;25.66;41.55
65013;BME280;51715;39.432;-77.518;2023-08-21T06:49:55;99880.40;;;25.66;41.68
65013;BME280;51715;39.432;-77.518;2023-08-21T06:52:24;99880.94;;;25.41;41.20
65013;BME280;51715;39.432;-77.518;2023-08-21T06:54:52;99879.28;;;25.84;41.55
65013;BME280;51715;39.432;-77.518;2023-08-21T06:57:21;99881.81;;;25.49;41.58
65013;BME280;51715;39.432;-77.518;2023-08-21T06:59:49;99884.19;;;25.39;41.68
65013;BME280;51715;39.432;-77.518;2023-08-21T07:02:17;99883.15;;;25.09;41.86
65013;BME280;51715;39.432;-77.518;2023-08-21T07:04:45;99879.68;;;25.24;42.08
65013;BME280;51715;39.432;-77.518;2023-08-21T07:07:13;99876.04;;;25.21;41.96
65013;BME280;51715;39.432;-77.518;2023-08-21T07:09:42;99873.71;;;25.19;41.99
65013;BME280;51715;39.432;-77.518;2023-08-21T07:12:10;99867.98;;;25.08;42.43
65013;BME280;51715;39.432;-77.518;2023-08-21T07:14:38;99869.42;;;25.15;42.85
65013;BME280;51715;39.432;-77.518;2023-08-21T07:17:06;99867.62;;;24.97;42.70
65013;BME280;51715;39.432;-77.518;2023-08-21T07:23:57;99868.67;;;25.07;43.91
65013;BME280;51715;39.432;-77.518;2023-08-21T07:26:26;99866.44;;;24.91;43.61
65013;BME280;51715;39.432;-77.518;2023-08-21T07:28:54;99868.04;;;24.43;43.71
65013;BME280;51715;39.432;-77.518;2023-08-21T07:31:23;99868.86;;;24.53;43.44
65013;BME280;51715;39.432;-77.518;2023-08-21T07:33:52;99869.61;;;24.52;43.47
65013;BME280;51715;39.432;-77.518;2023-08-21T07:36:20;99870.16;;;24.79;43.62
65013;BME280;51715;39.432;-77.518;2023-08-21T07:38:50;99872.03;;;24.81;43.51
65013;BME280;51715;39.432;-77.518;2023-08-21T07:41:20;99874.39;;;24.88;43.33
65013;BME280;51715;39.432;-77.518;2023-08-21T07:43:48;99874.53;;;24.96;43.17
65013;BME280;51715;39.432;-77.518;2023-08-21T07:46:16;99871.88;;;24.76;43.03
65013;BME280;51715;39.432;-77.518;2023-08-21T07:48:44;99867.08;;;24.81;42.92
65013;BME280;51715;39.432;-77.518;2023-08-21T07:51:12;99866.53;;;25.04;42.89
65013;BME280;51715;39.432;-77.518;2023-08-21T07:53:40;99863.67;;;25.00;42.89
65013;BME280;51715;39.432;-77.518;2023-08-21T07:56:08;99862.86;;;24.76;42.57
65013;BME280;51715;39.432;-77.518;2023-08-21T07:58:37;99861.46;;;24.76;42.31
65013;BME280;51715;39.432;-77.518;2023-08-21T08:01:06;99860.11;;;24.73;42.48
65013;BME280;51715;39.432;-77.518;2023-08-21T08:03:34;99860.08;;;24.94;42.39
65013;BME280;51715;39.432;-77.518;2023-08-21T08:06:02;99857.33;;;24.64;42.55
65013;BME280;51715;39.432;-77.518;2023-08-21T08:08:31;99859.95;;;24.86;42.50
65013;BME280;51715;39.432;-77.518;2023-08-21T08:11:02;99860.62;;;24.57;42.43
65013;BME280;51715;39.432;-77.518;2023-08-21T08:13:30;99863.25;;;24.78;42.46
65013;BME280;51715;39.432;-77.518;2023-08-21T08:15:59;99865.18;;;24.76;42.46
65013;BME280;51715;39.432;-77.518;2023-08-21T08:18:27;99867.58;;;24.92;42.63
65013;BME280;51715;39.432;-77.518;2023-08-21T08:20:55;99867.73;;;24.64;42.97
65013;BME280;51715;39.432;-77.518;2023-08-21T08:23:23;99872.75;;;24.82;43.21
65013;BME280;51715;39.432;-77.518;2023-08-21T08:25:52;99873.65;;;24.58;43.23
65013;BME280;51715;39.432;-77.518;2023-08-21T08:28:21;99873.31;;;24.52;43.45
65013;BME280;51715;39.432;-77.518;2023-08-21T08:30:50;99875.05;;;24.51;43.54
65013;BME280;51715;39.432;-77.518;2023-08-21T08:33:19;99877.01;;;24.78;43.35
65013;BME280;51715;39.432;-77.518;2023-08-21T08:35:47;99880.54;;;24.61;43.15
65013;BME280;51715;39.432;-77.518;2023-08-21T08:38:15;99882.59;;;24.58;42.68
65013;BME280;51715;39.432;-77.518;2023-08-21T08:40:46;99881.52;;;24.59;42.75
65013;BME280;51715;39.432;-77.518;2023-08-21T08:43:15;99881.46;;;24.78;42.85
65013;BME280;51715;39.432;-77.518;2023-08-21T08:45:45;99880.86;;;24.79;42.90
65013;BME280;51715;39.432;-77.518;2023-08-21T08:48:15;99885.17;;;24.56;42.97
65013;BME280;51715;39.432;-77.518;2023-08-21T08:50:45;99885.36;;;24.79;43.09
65013;BME280;51715;39.432;-77.518;2023-08-21T08:53:13;99889.82;;;24.76;42.97
65013;BME280;51715;39.432;-77.518;2023-08-21T08:55:41;99890.87;;;24.70;42.86
65013;BME280;51715;39.432;-77.518;2023-08-21T08:58:10;99890.39;;;24.41;43.03
65013;BME280;51715;39.432;-77.518;2023-08-21T09:00:38;99889.92;;;24.60;43.18
65013;BME280;51715;39.432;-77.518;2023-08-21T09:03:06;99892.46;;;24.54;43.41
65013;BME280;51715;39.432;-77.518;2023-08-21T09:05:34;99895.69;;;24.52;43.56
65013;BME280;51715;39.432;-77.518;2023-08-21T09:08:08;99895.92;;;24.52;43.38
65013;BME280;51715;39.432;-77.518;2023-08-21T09:10:37;99894.13;;;24.51;43.38
65013;BME280;51715;39.432;-77.518;2023-08-21T09:13:12;99891.10;;;24.50;43.42
65013;BME280;51715;39.432;-77.518;2023-08-21T09:15:42;99900.14;;;24.03;43.17
65013;BME280;51715;39.432;-77.518;2023-08-21T09:18:11;99903.36;;;24.50;42.83
65013;BME280;51715;39.432;-77.518;2023-08-21T09:20:39;99908.25;;;24.26;42.75
65013;BME280;51715;39.432;-77.518;2023-08-21T09:23:08;99912.20;;;24.45;42.69
65013;BME280;51715;39.432;-77.518;2023-08-21T09:25:40;99909.04;;;24.40;42.92
65013;BME280;51715;39.432;-77.518;2023-08-21T09:28:10;99906.34;;;24.13;43.22
65013;BME280;51715;39.432;-77.518;2023-08-21T09:30:46;99907.94;;;24.36;43.08
65013;BME280;51715;39.432;-77.518;2023-08-21T09:33:18;99909.31;;;24.37;42.94
65013;BME280;51715;39.432;-77.518;2023-08-21T09:35:46;99905.42;;;24.31;43.20
65013;BME280;51715;39.432;-77.518;2023-08-21T09:38:14;99903.56;;;24.27;43.46
65013;BME280;51715;39.432;-77.518;2023-08-21T09:40:43;99907.69;;;24.18;43.94
65013;BME280;51715;39.432;-77.518;2023-08-21T09:43:17;99902.61;;;24.22;43.97
65013;BME280;51715;39.432;-77.518;2023-08-21T09:45:47;99897.41;;;24.23;43.95
65013;BME280;51715;39.432;-77.518;2023-08-21T09:48:16;99901.10;;;24.28;43.69
65013;BME280;51715;39.432;-77.518;2023-08-21T09:50:47;99907.15;;;24.33;43.52
65013;BME280;51715;39.432;-77.518;2023-08-21T09:53:15;99914.18;;;24.34;43.31
65013;BME280;51715;39.432;-77.518;2023-08-21T09:55:44;99914.47;;;24.31;43.22
65013;BME280;51715;39.432;-77.518;2023-08-21T09:58:14;99911.91;;;24.33;43.14
65013;BME280;51715;39.432;-77.518;2023-08-21T10:00:42;99906.51;;;24.25;43.59
65013;BME280;51715;39.432;-77.518;2023-08-21T10:03:11;99906.20;;;24.23;43.91
65013;BME280;51715;39.432;-77.518;2023-08-21T10:05:40;99914.87;;;24.24;43.96
65013;BME280;51715;39.432;-77.518;2023-08-21T10:08:10;99922.04;;;24.27;43.80
65013;BME280;51715;39.432;-77.518;2023-08-21T10:10:39;99921.53;;;24.34;43.74
65013;BME280;51715;39.432;-77.518;2023-08-21T10:13:08;99920.70;;;23.96;43.53
65013;BME280;51715;39.432;-77.518;2023-08-21T10:15:38;99916.54;;;24.40;43.65
65013;BME280;51715;39.432;-77.518;2023-08-21T10:18:24;99918.61;;;24.39;43.75
65013;BME280;51715;39.432;-77.518;2023-08-21T10:20:53;99923.95;;;24.41;43.38
65013;BME280;51715;39.432;-77.518;2023-08-21T10:23:26;99921.36;;;24.40;43.19
65013;BME280;51715;39.432;-77.518;2023-08-21T10:25:56;99921.10;;;24.20;43.15
65013;BME280;51715;39.432;-77.518;2023-08-21T10:28:24;99925.92;;;24.41;42.80
65013;BME280;51715;39.432;-77.518;2023-08-21T10:30:52;99935.82;;;24.39;42.60
65013;BME280;51715;39.432;-77.518;2023-08-21T10:33:45;99947.62;;;24.08;42.33
65013;BME280;51715;39.432;-77.518;2023-08-21T10:36:13;99950.16;;;24.21;42.63
65013;BME280;51715;39.432;-77.518;2023-08-21T10:39:00;99944.57;;;24.31;42.97
65013;BME280;51715;39.432;-77.518;2023-08-21T10:41:28;99946.79;;;24.02;43.45
65013;BME280;51715;39.432;-77.518;2023-08-21T10:43:57;99949.53;;;23.99;43.69
65013;BME280;51715;39.432;-77.518;2023-08-21T10:46:25;99952.75;;;24.15;43.95
65013;BME280;51715;39.432;-77.518;2023-08-21T10:48:53;99960.28;;;24.13;44.13
65013;BME280;51715;39.432;-77.518;2023-08-21T10:51:21;99958.29;;;23.86;44.27
65013;BME280;51715;39.432;-77.518;2023-08-21T10:53:49;99962.87;;;23.90;44.33
65013;BME280;51715;39.432;-77.518;2023-08-21T10:56:18;99962.42;;;23.93;44.31
65013;BME280;51715;39.432;-77.518;2023-08-21T10:58:46;99962.32;;;23.98;44.25
65013;BME280;51715;39.432;-77.518;2023-08-21T11:01:14;99963.29;;;24.05;43.98
65013;BME280;51715;39.432;-77.518;2023-08-21T11:03:46;99965.54;;;23.87;43.89
65013;BME280;51715;39.432;-77.518;2023-08-21T11:06:18;99968.24;;;24.17;43.94
65013;BME280;51715;39.432;-77.518;2023-08-21T11:08:47;99971.16;;;24.06;43.82
65013;BME280;51715;39.432;-77.518;2023-08-21T11:11:17;99967.17;;;24.32;43.96
65013;BME280;51715;39.432;-77.518;2023-08-21T11:13:53;99964.60;;;24.25;43.97
65013;BME280;51715;39.432;-77.518;2023-08-21T11:16:22;99962.29;;;24.36;43.90
65013;BME280;51715;39.432;-77.518;2023-08-21T11:18:52;99962.68;;;24.51;43.86
65013;BME280;51715;39.432;-77.518;2023-08-21T11:21:23;99959.69;;;24.36;43.69
65013;BME280;51715;39.432;-77.518;2023-08-21T11:23:51;99955.46;;;24.47;43.68
65013;BME280;51715;39.432;-77.518;2023-08-21T11:26:20;99958.97;;;24.57;43.49
65013;BME280;51715;39.432;-77.518;2023-08-21T11:28:49;99957.21;;;24.95;43.36
65013;BME280;51715;39.432;-77.518;2023-08-21T11:31:17;99957.63;;;25.26;43.54
65013;BME280;51715;39.432;-77.518;2023-08-21T11:33:50;99963.81;;;24.89;43.39
65013;BME280;51715;39.432;-77.518;2023-08-21T11:36:18;99964.81;;;24.77;43.23
65013;BME280;51715;39.432;-77.518;2023-08-21T11:38:59;99965.04;;;25.13;43.42
65013;BME280;51715;39.432;-77.518;2023-08-21T11:41:27;99968.16;;;25.26;43.32
65013;BME280;51715;39.432;-77.518;2023-08-21T11:44:02;99970.02;;;25.40;43.26
65013;BME280;51715;39.432;-77.518;2023-08-21T11:46:31;99972.51;;;25.50;43.05
65013;BME280;51715;39.432;-77.518;2023-08-21T11:49:00;99975.06;;;25.38;43.24
65013;BME280;51715;39.432;-77.518;2023-08-21T11:51:29;99971.88;;;25.70;43.38
65013;BME280;51715;39.432;-77.518;2023-08-21T11:54:05;99976.49;;;25.83;42.86
65013;BME280;51715;39.432;-77.518;2023-08-21T11:56:34;99974.54;;;25.95;42.66
65013;BME280;51715;39.432;-77.518;2023-08-21T11:59:02;99974.44;;;25.55;42.71
65013;BME280;51715;39.432;-77.518;2023-08-21T12:01:34;99975.28;;;25.67;42.90
65013;BME280;51715;39.432;-77.518;2023-08-21T12:04:14;99972.75;;;25.76;43.10
65013;BME280;51715;39.432;-77.518;2023-08-21T12:06:44;99970.17;;;25.88;42.92
65013;BME280;51715;39.432;-77.518;2023-08-21T12:09:12;99972.71;;;26.03;43.07
65013;BME280;51715;39.432;-77.518;2023-08-21T12:11:41;99976.25;;;26.16;43.01
65013;BME280;51715;39.432;-77.518;2023-08-21T12:14:09;99980.62;;;26.28;42.17
65013;BME280;51715;39.432;-77.518;2023-08-21T12:16:38;99981.35;;;26.37;42.12
65013;BME280;51715;39.432;-77.518;2023-08-21T12:19:07;99989.55;;;26.51;42.81
65013;BME280;51715;39.432;-77.518;2023-08-21T12:21:36;99990.15;;;26.68;42.50
65013;BME280;51715;39.432;-77.518;2023-08-21T12:24:05;99987.10;;;26.62;42.02
65013;BME280;51715;39.432;-77.518;2023-08-21T12:26:33;99994.13;;;27.02;41.35
65013;BME280;51715;39.432;-77.518;2023-08-21T12:29:02;100001.26;;;26.97;40.58
65013;BME280;51715;39.432;-77.518;2023-08-21T12:31:30;100007.11;;;26.88;40.18
65013;BME280;51715;39.432;-77.518;2023-08-21T12:33:58;100012.92;;;26.95;39.91
65013;BME280;51715;39.432;-77.518;2023-08-21T12:36:26;100014.04;;;27.03;40.65
65013;BME280;51715;39.432;-77.518;2023-08-21T12:38:54;100012.28;;;27.57;40.57
65013;BME280;51715;39.432;-77.518;2023-08-21T12:41:24;100014.30;;;27.17;40.62
65013;BME280;51715;39.432;-77.518;2023-08-21T12:43:53;100014.56;;;27.08;40.26
65013;BME280;51715;39.432;-77.518;2023-08-21T12:46:22;100013.97;;;27.54;39.60
65013;BME280;51715;39.432;-77.518;2023-08-21T12:48:50;100011.07;;;27.68;38.94
65013;BME280;51715;39.432;-77.518;2023-08-21T12:51:18;100010.28;;;27.77;38.95
65013;BME280;51715;39.432;-77.518;2023-08-21T12:53:47;100013.95;;;27.90;38.70
65013;BME280;51715;39.432;-77.518;2023-08-21T12:56:16;100011.82;;;27.78;38.76